sensor_id;sensor_type;location;lat;lon;timestamp;pressure;altitude;pressure_sealevel;temperature;humidity
60642;BME280;46837;52.446;-1.930;2024-02-21T00:00:09;100364.74;;;9.95;91.01
60642;BME280;46837;52.446;-1.930;2024-02-21T00:01:09;100361.20;;;9.88;90.89
60642;BME280;46837;52.446;-1.930;2024-02-21T00:02:09;100356.86;;;9.85;91.08
60642;BME280;46837;52.446;-1.930;2024-02-21T00:03:09;100353.79;;;9.84;91.25
60642;BME280;46837;52.446;-1.930;2024-02-21T00:04:09;100351.21;;;9.83;91.17
60642;BME280;46837;52.446;-1.930;2024-02-21T00:05:09;100346.32;;;9.79;91.45
60642;BME280;46837;52.446;-1.930;2024-02-21T00:06:09;100341.76;;;9.76;91.45
60642;BME280;46837;52.446;-1.930;2024-02-21T00:07:09;100339.36;;;9.75;91.56
60642;BME280;46837;52.446;-1.930;2024-02-21T00:08:09;100334.97;;;9.72;91.51
60642;BME280;46837;52.446;-1.930;2024-02-21T00:09:09;100332.30;;;9.73;91.50
60642;BME280;46837;52.446;-1.930;2024-02-21T00:10:09;100334.11;;;9.74;91.48
60642;BME280;46837;52.446;-1.930;2024-02-21T00:11:09;100336.04;;;9.77;91.47
60642;BME280;46837;52.446;-1.930;2024-02-21T00:12:09;100336.89;;;9.74;91.36
60642;BME280;46837;52.446;-1.930;2024-02-21T00:13:09;100330.93;;;9.74;91.43
60642;BME280;46837;52.446;-1.930;2024-02-21T00:14:09;100326.29;;;9.73;91.65
60642;BME280;46837;52.446;-1.930;2024-02-21T00:15:09;100322.84;;;9.71;91.55
60642;BME280;46837;52.446;-1.930;2024-02-21T00:16:09;100323.94;;;9.72;91.72
60642;BME280;46837;52.446;-1.930;2024-02-21T00:17:09;100321.96;;;9.71;91.63
60642;BME280;46837;52.446;-1.930;2024-02-21T00:18:09;100317.71;;;9.71;91.74
60642;BME280;46837;52.446;-1.930;2024-02-21T00:19:09;100315.24;;;9.75;91.83
60642;BME280;46837;52.446;-1.930;2024-02-21T00:20:09;100312.73;;;9.75;91.53
60642;BME280;46837;52.446;-1.930;2024-02-21T00:21:09;100310.99;;;9.77;91.42
60642;BME280;46837;52.446;-1.930;2024-02-21T00:22:09;100312.99;;;9.76;91.40
60642;BME280;46837;52.446;-1.930;2024-02-21T00:23:09;100311.41;;;9.68;91.66
60642;BME280;46837;52.446;-1.930;2024-02-21T00:24:09;100307.96;;;9.69;91.98
60642;BME280;46837;52.446;-1.930;2024-02-21T00:25:09;100314.48;;;9.64;92.00
60642;BME280;46837;52.446;-1.930;2024-02-21T00:26:09;100314.93;;;9.65;92.25
60642;BME280;46837;52.446;-1.930;2024-02-21T00:27:09;100313.70;;;9.62;92.28
60642;BME280;46837;52.446;-1.930;2024-02-21T00:28:09;100315.64;;;9.64;92.29
60642;BME280;46837;52.446;-1.930;2024-02-21T00:29:09;100314.90;;;9.61;92.14
60642;BME280;46837;52.446;-1.930;2024-02-21T00:30:09;100316.78;;;9.64;92.29
60642;BME280;46837;52.446;-1.930;2024-02-21T00:31:09;100312.48;;;9.60;92.08
60642;BME280;46837;52.446;-1.930;2024-02-21T00:32:09;100311.12;;;9.61;92.33
60642;BME280;46837;52.446;-1.930;2024-02-21T00:33:09;100306.90;;;9.58;92.32
60642;BME280;46837;52.446;-1.930;2024-02-21T00:34:09;100309.71;;;9.54;92.62
60642;BME280;46837;52.446;-1.930;2024-02-21T00:35:09;100302.42;;;9.52;92.62
60642;BME280;46837;52.446;-1.930;2024-02-21T00:36:09;100302.68;;;9.52;92.80
60642;BME280;46837;52.446;-1.930;2024-02-21T00:37:09;100304.67;;;9.53;92.86
60642;BME280;46837;52.446;-1.930;2024-02-21T00:38:09;100305.73;;;9.54;92.67
60642;BME280;46837;52.446;-1.930;2024-02-21T00:39:09;100306.71;;;9.54;92.66
60642;BME280;46837;52.446;-1.930;2024-02-21T00:40:09;100308.68;;;9.54;92.78
60642;BME280;46837;52.446;-1.930;2024-02-21T00:41:09;100310.70;;;9.61;92.74
60642;BME280;46837;52.446;-1.930;2024-02-21T00:42:09;100306.15;;;9.66;92.39
60642;BME280;46837;52.446;-1.930;2024-02-21T00:43:09;100302.47;;;9.70;92.11
60642;BME280;46837;52.446;-1.930;2024-02-21T00:44:09;100304.61;;;9.73;91.82
60642;BME280;46837;52.446;-1.930;2024-02-21T00:45:09;100300.79;;;9.70;91.92
60642;BME280;46837;52.446;-1.930;2024-02-21T00:46:09;100301.45;;;9.71;91.95
60642;BME280;46837;52.446;-1.930;2024-02-21T00:47:09;100302.12;;;9.72;91.98
60642;BME280;46837;52.446;-1.930;2024-02-21T00:48:09;100300.42;;;9.71;91.79
60642;BME280;46837;52.446;-1.930;2024-02-21T00:49:09;100298.69;;;9.67;91.94
60642;BME280;46837;52.446;-1.930;2024-02-21T00:50:09;100299.80;;;9.70;92.07
60642;BME280;46837;52.446;-1.930;2024-02-21T00:51:09;100294.98;;;9.67;92.07
60642;BME280;46837;52.446;-1.930;2024-02-21T00:52:09;100294.85;;;9.64;92.03
60642;BME280;46837;52.446;-1.930;2024-02-21T00:53:09;100288.57;;;9.66;92.12
60642;BME280;46837;52.446;-1.930;2024-02-21T00:54:09;100288.52;;;9.66;92.25
60642;BME280;46837;52.446;-1.930;2024-02-21T00:55:09;100282.61;;;9.62;92.03
60642;BME280;46837;52.446;-1.930;2024-02-21T00:56:09;100276.20;;;9.60;92.39
60642;BME280;46837;52.446;-1.930;2024-02-21T00:57:09;100280.23;;;9.60;92.60
60642;BME280;46837;52.446;-1.930;2024-02-21T00:58:09;100274.78;;;9.60;92.54
60642;BME280;46837;52.446;-1.930;2024-02-21T00:59:09;100274.86;;;9.57;92.67
60642;BME280;46837;52.446;-1.930;2024-02-21T01:00:09;100276.68;;;9.64;92.66
60642;BME280;46837;52.446;-1.930;2024-02-21T01:01:09;100269.00;;;9.62;92.34
60642;BME280;46837;52.446;-1.930;2024-02-21T01:02:09;100270.05;;;9.56;92.70
60642;BME280;46837;52.446;-1.930;2024-02-21T01:03:09;100270.97;;;9.61;92.73
60642;BME280;46837;52.446;-1.930;2024-02-21T01:04:09;100263.46;;;9.63;92.66
60642;BME280;46837;52.446;-1.930;2024-02-21T01:05:09;100262.15;;;9.63;92.41
60642;BME280;46837;52.446;-1.930;2024-02-21T01:06:09;100258.47;;;9.60;92.52
60642;BME280;46837;52.446;-1.930;2024-02-21T01:07:09;100253.89;;;9.55;92.75
60642;BME280;46837;52.446;-1.930;2024-02-21T01:08:09;100249.57;;;9.48;92.92
60642;BME280;46837;52.446;-1.930;2024-02-21T01:09:09;100251.54;;;9.47;93.43
60642;BME280;46837;52.446;-1.930;2024-02-21T01:10:09;100249.24;;;9.48;93.48
60642;BME280;46837;52.446;-1.930;2024-02-21T01:11:09;100244.85;;;9.49;93.43
60642;BME280;46837;52.446;-1.930;2024-02-21T01:12:09;100239.84;;;9.50;93.34
60642;BME280;46837;52.446;-1.930;2024-02-21T01:13:09;100238.98;;;9.46;93.33
60642;BME280;46837;52.446;-1.930;2024-02-21T01:14:09;100230.54;;;9.47;93.57
60642;BME280;46837;52.446;-1.930;2024-02-21T01:15:09;100228.16;;;9.43;93.57
60642;BME280;46837;52.446;-1.930;2024-02-21T01:16:09;100222.68;;;9.48;93.81
60642;BME280;46837;52.446;-1.930;2024-02-21T01:17:09;100218.17;;;9.54;93.41
60642;BME280;46837;52.446;-1.930;2024-02-21T01:18:09;100219.32;;;9.51;93.03
60642;BME280;46837;52.446;-1.930;2024-02-21T01:19:09;100210.28;;;9.50;93.35
60642;BME280;46837;52.446;-1.930;2024-02-21T01:20:09;100204.44;;;9.52;93.46
60642;BME280;46837;52.446;-1.930;2024-02-21T01:21:09;100203.92;;;9.49;93.34
60642;BME280;46837;52.446;-1.930;2024-02-21T01:22:09;100202.52;;;9.43;93.37
60642;BME280;46837;52.446;-1.930;2024-02-21T01:23:09;100201.50;;;9.44;93.74
60642;BME280;46837;52.446;-1.930;2024-02-21T01:24:09;100205.23;;;9.42;93.79
60642;BME280;46837;52.446;-1.930;2024-02-21T01:25:09;100202.66;;;9.40;93.80
60642;BME280;46837;52.446;-1.930;2024-02-21T01:26:09;100196.36;;;9.43;93.75
60642;BME280;46837;52.446;-1.930;2024-02-21T01:27:09;100191.66;;;9.42;93.83
60642;BME280;46837;52.446;-1.930;2024-02-21T01:28:09;100200.48;;;9.41;93.72
60642;BME280;46837;52.446;-1.930;2024-02-21T01:29:09;100192.87;;;9.45;93.66
60642;BME280;46837;52.446;-1.930;2024-02-21T01:30:09;100193.36;;;9.43;93.47
60642;BME280;46837;52.446;-1.930;2024-02-21T01:31:09;100191.05;;;9.40;93.63
60642;BME280;46837;52.446;-1.930;2024-02-21T01:32:09;100189.84;;;9.41;93.74
60642;BME280;46837;52.446;-1.930;2024-02-21T01:33:09;100187.54;;;9.45;93.59
60642;BME280;46837;52.446;-1.930;2024-02-21T01:34:09;100185.85;;;9.46;93.21
60642;BME280;46837;52.446;-1.930;2024-02-21T01:35:09;100182.50;;;9.42;93.44
60642;BME280;46837;52.446;-1.930;2024-02-21T01:36:10;100178.82;;;9.39;93.70
60642;BME280;46837;52.446;-1.930;2024-02-21T01:37:10;100171.56;;;9.44;93.60
60642;BME280;46837;52.446;-1.930;2024-02-21T01:38:09;100174.52;;;9.48;93.31
60642;BME280;46837;52.446;-1.930;2024-02-21T01:39:09;100174.42;;;9.49;93.25
60642;BME280;46837;52.446;-1.930;2024-02-21T01:40:09;100170.64;;;9.46;93.17
60642;BME280;46837;52.446;-1.930;2024-02-21T01:41:09;100164.88;;;9.42;93.36
60642;BME280;46837;52.446;-1.930;2024-02-21T01:42:09;100165.38;;;9.37;93.50
60642;BME280;46837;52.446;-1.930;2024-02-21T01:43:19;100162.12;;;9.39;93.70
60642;BME280;46837;52.446;-1.930;2024-02-21T01:44:09;100155.30;;;9.38;93.62
60642;BME280;46837;52.446;-1.930;2024-02-21T01:45:09;100151.66;;;9.39;93.58
60642;BME280;46837;52.446;-1.930;2024-02-21T01:46:09;100153.79;;;9.39;93.58
60642;BME280;46837;52.446;-1.930;2024-02-21T01:47:09;100147.52;;;9.34;93.78
60642;BME280;46837;52.446;-1.930;2024-02-21T01:48:09;100150.64;;;9.28;93.95
60642;BME280;46837;52.446;-1.930;2024-02-21T01:49:09;100152.19;;;9.31;94.22
60642;BME280;46837;52.446;-1.930;2024-02-21T01:50:09;100144.14;;;9.32;94.12
60642;BME280;46837;52.446;-1.930;2024-02-21T01:51:09;100147.44;;;9.36;93.98
60642;BME280;46837;52.446;-1.930;2024-02-21T01:52:09;100143.08;;;9.38;93.73
60642;BME280;46837;52.446;-1.930;2024-02-21T01:53:09;100139.42;;;9.38;93.83
60642;BME280;46837;52.446;-1.930;2024-02-21T01:54:09;100128.79;;;9.29;93.81
60642;BME280;46837;52.446;-1.930;2024-02-21T01:55:09;100131.94;;;9.26;94.33
60642;BME280;46837;52.446;-1.930;2024-02-21T01:56:09;100129.70;;;9.28;94.40
60642;BME280;46837;52.446;-1.930;2024-02-21T01:57:09;100137.69;;;9.31;94.48
60642;BME280;46837;52.446;-1.930;2024-02-21T01:58:09;100131.45;;;9.33;94.23
60642;BME280;46837;52.446;-1.930;2024-02-21T01:59:09;100129.10;;;9.35;94.09
60642;BME280;46837;52.446;-1.930;2024-02-21T02:00:09;100127.19;;;9.33;93.82
60642;BME280;46837;52.446;-1.930;2024-02-21T02:01:09;100129.31;;;9.32;94.05
60642;BME280;46837;52.446;-1.930;2024-02-21T02:02:09;100126.24;;;9.24;94.38
60642;BME280;46837;52.446;-1.930;2024-02-21T02:03:09;100130.39;;;9.27;94.65
60642;BME280;46837;52.446;-1.930;2024-02-21T02:04:09;100129.43;;;9.26;94.72
60642;BME280;46837;52.446;-1.930;2024-02-21T02:05:09;100133.27;;;9.29;94.72
60642;BME280;46837;52.446;-1.930;2024-02-21T02:06:09;100132.66;;;9.30;94.42
60642;BME280;46837;52.446;-1.930;2024-02-21T02:07:09;100132.24;;;9.23;94.55
60642;BME280;46837;52.446;-1.930;2024-02-21T02:08:09;100131.12;;;9.19;94.89
60642;BME280;46837;52.446;-1.930;2024-02-21T02:09:09;100132.88;;;9.21;95.14
60642;BME280;46837;52.446;-1.930;2024-02-21T02:10:09;100135.48;;;9.19;95.22
60642;BME280;46837;52.446;-1.930;2024-02-21T02:11:09;100134.70;;;9.25;95.42
60642;BME280;46837;52.446;-1.930;2024-02-21T02:12:09;100131.34;;;9.26;94.99
60642;BME280;46837;52.446;-1.930;2024-02-21T02:13:09;100127.26;;;9.22;95.10
60642;BME280;46837;52.446;-1.930;2024-02-21T02:14:09;100131.05;;;9.25;95.19
60642;BME280;46837;52.446;-1.930;2024-02-21T02:15:09;100132.63;;;9.25;95.18
60642;BME280;46837;52.446;-1.930;2024-02-21T02:16:09;100131.58;;;9.24;94.99
60642;BME280;46837;52.446;-1.930;2024-02-21T02:17:09;100126.07;;;9.31;95.10
60642;BME280;46837;52.446;-1.930;2024-02-21T02:18:09;100121.73;;;9.27;94.95
60642;BME280;46837;52.446;-1.930;2024-02-21T02:19:09;100123.56;;;9.31;94.94
60642;BME280;46837;52.446;-1.930;2024-02-21T02:20:09;100112.04;;;9.33;94.94
60642;BME280;46837;52.446;-1.930;2024-02-21T02:21:13;100113.30;;;9.37;94.82
60642;BME280;46837;52.446;-1.930;2024-02-21T02:22:15;100109.46;;;9.34;94.48
60642;BME280;46837;52.446;-1.930;2024-02-21T02:24:09;100111.09;;;9.39;94.78
60642;BME280;46837;52.446;-1.930;2024-02-21T02:25:09;100105.82;;;9.35;94.90
60642;BME280;46837;52.446;-1.930;2024-02-21T02:26:10;100100.14;;;9.34;94.98
60642;BME280;46837;52.446;-1.930;2024-02-21T02:27:09;100096.23;;;9.38;94.86
60642;BME280;46837;52.446;-1.930;2024-02-21T02:28:09;100094.54;;;9.37;94.83
60642;BME280;46837;52.446;-1.930;2024-02-21T02:29:09;100091.91;;;9.33;94.96
60642;BME280;46837;52.446;-1.930;2024-02-21T02:30:09;100083.91;;;9.38;95.11
60642;BME280;46837;52.446;-1.930;2024-02-21T02:31:09;100082.56;;;9.39;94.83
60642;BME280;46837;52.446;-1.930;2024-02-21T02:32:09;100077.99;;;9.40;94.84
60642;BME280;46837;52.446;-1.930;2024-02-21T02:33:09;100072.04;;;9.41;94.75
60642;BME280;46837;52.446;-1.930;2024-02-21T02:34:09;100066.37;;;9.41;94.63
60642;BME280;46837;52.446;-1.930;2024-02-21T02:35:09;100063.34;;;9.38;94.77
60642;BME280;46837;52.446;-1.930;2024-02-21T02:36:09;100056.92;;;9.37;95.12
60642;BME280;46837;52.446;-1.930;2024-02-21T02:37:09;100053.94;;;9.34;95.21
60642;BME280;46837;52.446;-1.930;2024-02-21T02:38:09;100048.45;;;9.38;95.30
60642;BME280;46837;52.446;-1.930;2024-02-21T02:39:09;100052.23;;;9.39;95.17
60642;BME280;46837;52.446;-1.930;2024-02-21T02:40:09;100047.78;;;9.42;94.99
60642;BME280;46837;52.446;-1.930;2024-02-21T02:41:09;100046.93;;;9.44;94.92
60642;BME280;46837;52.446;-1.930;2024-02-21T02:42:09;100043.79;;;9.40;94.94
60642;BME280;46837;52.446;-1.930;2024-02-21T02:43:09;100041.27;;;9.38;95.24
60642;BME280;46837;52.446;-1.930;2024-02-21T02:44:09;100036.31;;;9.37;95.26
60642;BME280;46837;52.446;-1.930;2024-02-21T02:45:09;100031.86;;;9.35;95.27
60642;BME280;46837;52.446;-1.930;2024-02-21T02:46:09;100030.86;;;9.31;95.42
60642;BME280;46837;52.446;-1.930;2024-02-21T02:47:09;100025.54;;;9.34;95.64
60642;BME280;46837;52.446;-1.930;2024-02-21T02:48:09;100021.99;;;9.34;95.56
60642;BME280;46837;52.446;-1.930;2024-02-21T02:49:09;100022.55;;;9.36;95.56
60642;BME280;46837;52.446;-1.930;2024-02-21T02:50:09;100010.77;;;9.35;95.58
60642;BME280;46837;52.446;-1.930;2024-02-21T02:51:09;100013.32;;;9.34;95.46
60642;BME280;46837;52.446;-1.930;2024-02-21T02:52:09;100007.83;;;9.36;95.72
60642;BME280;46837;52.446;-1.930;2024-02-21T02:53:09;100006.32;;;9.40;95.69
60642;BME280;46837;52.446;-1.930;2024-02-21T02:54:09;100004.39;;;9.38;95.53
60642;BME280;46837;52.446;-1.930;2024-02-21T02:55:09;100003.05;;;9.40;95.68
60642;BME280;46837;52.446;-1.930;2024-02-21T02:56:09;99995.56;;;9.36;95.47
60642;BME280;46837;52.446;-1.930;2024-02-21T02:57:09;99990.36;;;9.34;95.78
60642;BME280;46837;52.446;-1.930;2024-02-21T02:58:09;99991.32;;;9.39;95.90
60642;BME280;46837;52.446;-1.930;2024-02-21T02:59:09;99990.78;;;9.40;95.71
60642;BME280;46837;52.446;-1.930;2024-02-21T03:00:09;99987.82;;;9.39;95.67
60642;BME280;46837;52.446;-1.930;2024-02-21T03:01:09;99990.11;;;9.41;95.66
60642;BME280;46837;52.446;-1.930;2024-02-21T03:02:09;99982.31;;;9.39;95.52
60642;BME280;46837;52.446;-1.930;2024-02-21T03:03:09;99980.21;;;9.34;95.69
60642;BME280;46837;52.446;-1.930;2024-02-21T03:04:09;99977.28;;;9.35;96.01
60642;BME280;46837;52.446;-1.930;2024-02-21T03:05:13;99970.25;;;9.36;96.00
60642;BME280;46837;52.446;-1.930;2024-02-21T03:06:09;99968.41;;;9.37;95.98
60642;BME280;46837;52.446;-1.930;2024-02-21T03:07:09;99969.17;;;9.36;95.95
60642;BME280;46837;52.446;-1.930;2024-02-21T03:08:09;99963.50;;;9.39;96.09
60642;BME280;46837;52.446;-1.930;2024-02-21T03:09:11;99961.75;;;9.36;96.01
60642;BME280;46837;52.446;-1.930;2024-02-21T03:10:09;99959.23;;;9.37;96.03
60642;BME280;46837;52.446;-1.930;2024-02-21T03:11:09;99954.69;;;9.32;96.19
60642;BME280;46837;52.446;-1.930;2024-02-21T03:12:09;99959.56;;;9.37;96.19
60642;BME280;46837;52.446;-1.930;2024-02-21T03:13:09;99959.73;;;9.38;96.05
60642;BME280;46837;52.446;-1.930;2024-02-21T03:14:09;99953.00;;;9.31;96.10
60642;BME280;46837;52.446;-1.930;2024-02-21T03:15:09;99948.93;;;9.33;96.34
60642;BME280;46837;52.446;-1.930;2024-02-21T03:16:09;99945.82;;;9.37;96.34
60642;BME280;46837;52.446;-1.930;2024-02-21T03:17:09;99941.97;;;9.40;96.14
60642;BME280;46837;52.446;-1.930;2024-02-21T03:18:09;99933.50;;;9.36;96.03
60642;BME280;46837;52.446;-1.930;2024-02-21T03:19:09;99936.56;;;9.41;96.15
60642;BME280;46837;52.446;-1.930;2024-02-21T03:20:09;99936.02;;;9.39;95.84
60642;BME280;46837;52.446;-1.930;2024-02-21T03:21:09;99927.78;;;9.41;96.08
60642;BME280;46837;52.446;-1.930;2024-02-21T03:22:09;99931.33;;;9.39;95.90
60642;BME280;46837;52.446;-1.930;2024-02-21T03:23:09;99930.57;;;9.40;96.12
60642;BME280;46837;52.446;-1.930;2024-02-21T03:24:09;99924.55;;;9.38;96.20
60642;BME280;46837;52.446;-1.930;2024-02-21T03:25:09;99915.44;;;9.32;96.20
60642;BME280;46837;52.446;-1.930;2024-02-21T03:26:09;99914.94;;;9.30;96.48
60642;BME280;46837;52.446;-1.930;2024-02-21T03:27:09;99910.79;;;9.31;96.68
60642;BME280;46837;52.446;-1.930;2024-02-21T03:28:09;99907.52;;;9.34;96.73
60642;BME280;46837;52.446;-1.930;2024-02-21T03:29:10;99904.00;;;9.37;96.56
60642;BME280;46837;52.446;-1.930;2024-02-21T03:30:09;99899.66;;;9.31;96.39
60642;BME280;46837;52.446;-1.930;2024-02-21T03:31:09;99898.17;;;9.36;96.66
60642;BME280;46837;52.446;-1.930;2024-02-21T03:32:09;99893.95;;;9.37;96.55
60642;BME280;46837;52.446;-1.930;2024-02-21T03:33:09;99892.94;;;9.40;96.37
60642;BME280;46837;52.446;-1.930;2024-02-21T03:34:09;99887.54;;;9.40;96.17
60642;BME280;46837;52.446;-1.930;2024-02-21T03:35:09;99888.34;;;9.41;96.25
60642;BME280;46837;52.446;-1.930;2024-02-21T03:36:13;99882.09;;;9.42;96.18
60642;BME280;46837;52.446;-1.930;2024-02-21T03:37:09;99888.02;;;9.39;96.17
60642;BME280;46837;52.446;-1.930;2024-02-21T03:38:09;99879.09;;;9.39;96.41
60642;BME280;46837;52.446;-1.930;2024-02-21T03:39:09;99878.11;;;9.42;96.30
60642;BME280;46837;52.446;-1.930;2024-02-21T03:40:11;99877.57;;;9.46;96.17
60642;BME280;46837;52.446;-1.930;2024-02-21T03:41:09;99875.72;;;9.46;95.90
60642;BME280;46837;52.446;-1.930;2024-02-21T03:42:09;99876.81;;;9.46;95.87
60642;BME280;46837;52.446;-1.930;2024-02-21T03:43:09;99867.85;;;9.39;95.98
60642;BME280;46837;52.446;-1.930;2024-02-21T03:44:09;99866.62;;;9.34;96.00
60642;BME280;46837;52.446;-1.930;2024-02-21T03:45:09;99867.92;;;9.30;96.48
60642;BME280;46837;52.446;-1.930;2024-02-21T03:46:09;99870.05;;;9.30;96.59
60642;BME280;46837;52.446;-1.930;2024-02-21T03:47:09;99859.27;;;9.33;96.50
60642;BME280;46837;52.446;-1.930;2024-02-21T03:48:09;99851.85;;;9.35;96.40
60642;BME280;46837;52.446;-1.930;2024-02-21T03:49:09;99853.71;;;9.37;96.19
60642;BME280;46837;52.446;-1.930;2024-02-21T03:50:09;99849.18;;;9.34;96.00
60642;BME280;46837;52.446;-1.930;2024-02-21T03:51:09;99845.09;;;9.32;96.23
60642;BME280;46837;52.446;-1.930;2024-02-21T03:52:09;99832.64;;;9.30;96.38
60642;BME280;46837;52.446;-1.930;2024-02-21T03:53:09;99833.78;;;9.28;96.29
60642;BME280;46837;52.446;-1.930;2024-02-21T03:54:09;99835.80;;;9.31;96.42
60642;BME280;46837;52.446;-1.930;2024-02-21T03:55:09;99835.76;;;9.32;96.23
60642;BME280;46837;52.446;-1.930;2024-02-21T03:56:09;99832.62;;;9.24;96.27
60642;BME280;46837;52.446;-1.930;2024-02-21T03:57:09;99834.32;;;9.27;96.51
60642;BME280;46837;52.446;-1.930;2024-02-21T03:58:09;99835.35;;;9.23;96.34
60642;BME280;46837;52.446;-1.930;2024-02-21T03:59:09;99829.69;;;9.24;96.64
60642;BME280;46837;52.446;-1.930;2024-02-21T04:00:09;99826.38;;;9.29;96.49
60642;BME280;46837;52.446;-1.930;2024-02-21T04:01:09;99831.84;;;9.30;96.17
60642;BME280;46837;52.446;-1.930;2024-02-21T04:02:11;99831.24;;;9.32;96.06
60642;BME280;46837;52.446;-1.930;2024-02-21T04:03:09;99817.87;;;9.28;95.88
60642;BME280;46837;52.446;-1.930;2024-02-21T04:04:09;99816.88;;;9.27;96.06
60642;BME280;46837;52.446;-1.930;2024-02-21T04:05:09;99813.98;;;9.21;96.07
60642;BME280;46837;52.446;-1.930;2024-02-21T04:06:09;99808.03;;;9.20;96.45
60642;BME280;46837;52.446;-1.930;2024-02-21T04:07:11;99809.67;;;9.21;96.52
60642;BME280;46837;52.446;-1.930;2024-02-21T04:08:09;99801.64;;;9.17;96.37
60642;BME280;46837;52.446;-1.930;2024-02-21T04:09:09;99797.71;;;9.15;96.48
60642;BME280;46837;52.446;-1.930;2024-02-21T04:10:09;99801.22;;;9.19;96.57
60642;BME280;46837;52.446;-1.930;2024-02-21T04:11:09;99786.75;;;9.16;96.17
60642;BME280;46837;52.446;-1.930;2024-02-21T04:12:09;99786.05;;;9.15;96.10
60642;BME280;46837;52.446;-1.930;2024-02-21T04:13:09;99784.03;;;9.12;95.98
60642;BME280;46837;52.446;-1.930;2024-02-21T04:14:09;99775.58;;;9.12;95.98
60642;BME280;46837;52.446;-1.930;2024-02-21T04:15:09;99776.23;;;9.12;95.88
60642;BME280;46837;52.446;-1.930;2024-02-21T04:16:09;99781.36;;;9.11;95.76
60642;BME280;46837;52.446;-1.930;2024-02-21T04:17:09;99777.31;;;9.10;95.76
60642;BME280;46837;52.446;-1.930;2024-02-21T04:18:09;99776.44;;;9.08;95.67
60642;BME280;46837;52.446;-1.930;2024-02-21T04:19:09;99770.38;;;9.06;95.71
60642;BME280;46837;52.446;-1.930;2024-02-21T04:20:13;99769.83;;;9.03;95.58
60642;BME280;46837;52.446;-1.930;2024-02-21T04:21:09;99771.95;;;8.98;95.61
60642;BME280;46837;52.446;-1.930;2024-02-21T04:22:09;99768.30;;;9.00;95.42
60642;BME280;46837;52.446;-1.930;2024-02-21T04:23:09;99761.31;;;8.97;95.15
60642;BME280;46837;52.446;-1.930;2024-02-21T04:24:09;99765.33;;;8.95;94.96
60642;BME280;46837;52.446;-1.930;2024-02-21T04:25:09;99765.79;;;9.01;95.05
60642;BME280;46837;52.446;-1.930;2024-02-21T04:26:09;99763.98;;;8.96;94.51
60642;BME280;46837;52.446;-1.930;2024-02-21T04:27:09;99758.91;;;8.91;94.74
60642;BME280;46837;52.446;-1.930;2024-02-21T04:28:09;99763.65;;;8.91;95.00
60642;BME280;46837;52.446;-1.930;2024-02-21T04:29:09;99762.88;;;8.95;94.98
60642;BME280;46837;52.446;-1.930;2024-02-21T04:30:09;99775.36;;;8.96;94.88
60642;BME280;46837;52.446;-1.930;2024-02-21T04:31:09;99760.30;;;8.86;94.66
60642;BME280;46837;52.446;-1.930;2024-02-21T04:32:09;99772.09;;;8.81;95.00
60642;BME280;46837;52.446;-1.930;2024-02-21T04:33:09;99770.07;;;8.79;95.49
60642;BME280;46837;52.446;-1.930;2024-02-21T04:34:09;99768.43;;;8.78;95.43
60642;BME280;46837;52.446;-1.930;2024-02-21T04:35:09;99787.81;;;8.72;95.33
60642;BME280;46837;52.446;-1.930;2024-02-21T04:36:09;99761.57;;;8.64;95.37
60642;BME280;46837;52.446;-1.930;2024-02-21T04:37:09;99763.07;;;8.68;95.42
60642;BME280;46837;52.446;-1.930;2024-02-21T04:38:09;99763.80;;;8.74;95.28
60642;BME280;46837;52.446;-1.930;2024-02-21T04:39:09;99752.70;;;8.76;94.85
60642;BME280;46837;52.446;-1.930;2024-02-21T04:40:09;99748.30;;;8.66;94.75
60642;BME280;46837;52.446;-1.930;2024-02-21T04:41:09;99744.63;;;8.64;94.70
60642;BME280;46837;52.446;-1.930;2024-02-21T04:42:09;99734.55;;;8.64;94.84
60642;BME280;46837;52.446;-1.930;2024-02-21T04:43:09;99739.17;;;8.70;94.91
60642;BME280;46837;52.446;-1.930;2024-02-21T04:44:09;99736.00;;;8.71;94.71
60642;BME280;46837;52.446;-1.930;2024-02-21T04:45:09;99736.66;;;8.75;94.51
60642;BME280;46837;52.446;-1.930;2024-02-21T04:46:09;99735.27;;;8.64;94.24
60642;BME280;46837;52.446;-1.930;2024-02-21T04:47:09;99725.81;;;8.67;94.55
60642;BME280;46837;52.446;-1.930;2024-02-21T04:48:09;99718.34;;;8.66;94.45
60642;BME280;46837;52.446;-1.930;2024-02-21T04:49:09;99721.57;;;8.57;94.31
60642;BME280;46837;52.446;-1.930;2024-02-21T04:50:09;99701.08;;;8.54;94.67
60642;BME280;46837;52.446;-1.930;2024-02-21T04:51:09;99712.64;;;8.57;94.33
60642;BME280;46837;52.446;-1.930;2024-02-21T04:52:09;99709.79;;;8.53;94.21
60642;BME280;46837;52.446;-1.930;2024-02-21T04:53:09;99704.24;;;8.42;94.24
60642;BME280;46837;52.446;-1.930;2024-02-21T04:54:09;99707.46;;;8.43;94.25
60642;BME280;46837;52.446;-1.930;2024-02-21T04:55:09;99684.59;;;8.41;94.18
60642;BME280;46837;52.446;-1.930;2024-02-21T04:56:09;99692.99;;;8.44;94.11
60642;BME280;46837;52.446;-1.930;2024-02-21T04:57:09;99686.92;;;8.39;93.90
60642;BME280;46837;52.446;-1.930;2024-02-21T04:58:09;99683.73;;;8.44;94.01
60642;BME280;46837;52.446;-1.930;2024-02-21T04:59:09;99686.95;;;8.44;93.71
60642;BME280;46837;52.446;-1.930;2024-02-21T05:00:09;99695.97;;;8.43;93.55
60642;BME280;46837;52.446;-1.930;2024-02-21T05:01:09;99680.01;;;8.38;93.19
60642;BME280;46837;52.446;-1.930;2024-02-21T05:02:09;99682.24;;;8.40;93.00
60642;BME280;46837;52.446;-1.930;2024-02-21T05:03:09;99675.82;;;8.34;93.02
60642;BME280;46837;52.446;-1.930;2024-02-21T05:04:09;99669.62;;;8.39;93.04
60642;BME280;46837;52.446;-1.930;2024-02-21T05:05:09;99674.09;;;8.42;92.92
60642;BME280;46837;52.446;-1.930;2024-02-21T05:06:09;99665.56;;;8.27;92.30
60642;BME280;46837;52.446;-1.930;2024-02-21T05:07:09;99665.05;;;8.21;92.23
60642;BME280;46837;52.446;-1.930;2024-02-21T05:08:09;99651.22;;;8.22;92.66
60642;BME280;46837;52.446;-1.930;2024-02-21T05:09:09;99663.83;;;8.17;92.25
60642;BME280;46837;52.446;-1.930;2024-02-21T05:10:09;99665.33;;;8.15;92.49
60642;BME280;46837;52.446;-1.930;2024-02-21T05:11:09;99657.65;;;8.10;92.32
60642;BME280;46837;52.446;-1.930;2024-02-21T05:12:09;99659.44;;;8.11;92.17
60642;BME280;46837;52.446;-1.930;2024-02-21T05:13:09;99654.59;;;8.08;92.21
60642;BME280;46837;52.446;-1.930;2024-02-21T05:14:09;99645.70;;;8.03;92.03
60642;BME280;46837;52.446;-1.930;2024-02-21T05:15:09;99652.53;;;8.00;91.90
60642;BME280;46837;52.446;-1.930;2024-02-21T05:16:09;99648.73;;;8.01;92.01